createdAt,value
2023-08-11T00:01:39.037Z,101373.38
2023-08-11T00:06:44.399Z,101372.38
2023-08-11T00:11:51.324Z,101375.91
2023-08-11T00:16:55.148Z,101377.78
2023-08-11T00:22:00.420Z,101374.09
2023-08-11T00:27:04.396Z,101375.59
2023-08-11T00:32:08.470Z,101382.13
2023-08-11T00:37:14.141Z,101386.38
2023-08-11T00:42:17.710Z,101386.88
2023-08-11T00:47:21.646Z,101386.22
2023-08-11T00:52:26.659Z,101376.44
2023-08-11T00:57:31.466Z,101385.88
2023-08-11T01:02:35.144Z,101377.81
2023-08-11T01:07:45.838Z,101387.22
2023-08-11T01:12:56.103Z,101374.22
2023-08-11T01:17:59.971Z,101372.06
2023-08-11T01:23:07.547Z,101367.84
2023-08-11T01:28:12.540Z,101364.13
2023-08-11T01:33:16.496Z,101371.72
2023-08-11T01:38:20.440Z,101362.44
2023-08-11T01:43:26.250Z,101362.44
2023-08-11T01:48:30.380Z,101367.53
2023-08-11T01:53:34.436Z,101355.22
2023-08-11T01:58:40.418Z,101355.41
2023-08-11T02:03:45.303Z,101353.84
2023-08-11T02:08:49.181Z,101354.72
2023-08-11T02:13:54.372Z,101354.19
2023-08-11T02:18:58.521Z,101347.13
2023-08-11T02:24:02.201Z,101340.06
2023-08-11T02:29:07.259Z,101341.38
2023-08-11T02:34:11.142Z,101333.63
2023-08-11T02:39:14.905Z,101330.94
2023-08-11T02:44:19.837Z,101326.06
2023-08-11T02:49:23.868Z,101332.47
2023-08-11T02:54:27.594Z,101336.00
2023-08-11T02:59:32.703Z,101330.63
2023-08-11T03:04:37.565Z,101326.91
2023-08-11T03:09:41.607Z,101324.38
2023-08-11T03:14:46.822Z,101330.97
2023-08-11T03:19:50.605Z,101323.53
2023-08-11T03:24:54.434Z,101330.28
2023-08-11T03:29:59.690Z,101325.19
2023-08-11T03:35:05.265Z,101319.47
2023-08-11T03:40:14.096Z,101328.91
2023-08-11T03:45:23.988Z,101337.00
2023-08-11T03:50:28.455Z,101341.09
2023-08-11T03:55:32.374Z,101338.22
2023-08-11T04:00:38.945Z,101336.00
2023-08-11T04:05:49.079Z,101339.38
2023-08-11T04:10:52.935Z,101340.88
2023-08-11T04:15:57.927Z,101346.81
2023-08-11T04:21:01.718Z,101351.81
2023-08-11T04:26:06.730Z,101345.56
2023-08-11T04:31:12.391Z,101339.88
2023-08-11T04:36:18.201Z,101351.16
2023-08-11T04:41:22.663Z,101343.91
2023-08-11T04:46:27.853Z,101340.53
2023-08-11T04:51:33.250Z,101356.19
2023-08-11T04:56:36.918Z,101348.06
2023-08-11T05:01:42.814Z,101358.75
2023-08-11T05:06:46.450Z,101349.34
2023-08-11T05:11:50.084Z,101364.94
2023-08-11T05:16:55.222Z,101356.88
2023-08-11T05:21:59.006Z,101363.69
2023-08-11T05:27:02.632Z,101359.78
2023-08-11T05:32:08.144Z,101370.56
2023-08-11T05:37:12.218Z,101360.53
2023-08-11T05:42:16.607Z,101350.16
2023-08-11T05:47:22.494Z,101355.53
2023-08-11T05:52:26.149Z,101341.38
2023-08-11T05:57:30.047Z,101354.19
2023-08-11T06:02:35.022Z,101360.94
2023-08-11T06:07:55.772Z,101367.34
2023-08-11T06:13:01.587Z,101365.00
2023-08-11T06:18:10.369Z,101356.75
2023-08-11T06:23:14.401Z,101351.00
2023-08-11T06:28:20.880Z,101351.50
2023-08-11T06:33:27.410Z,101353.81
2023-08-11T06:38:31.939Z,101358.19
2023-08-11T06:43:38.013Z,101361.28
2023-08-11T06:48:44.660Z,101352.22
2023-08-11T06:53:48.821Z,101354.47
2023-08-11T06:58:53.942Z,101359.13
2023-08-11T07:04:01.938Z,101350.19
2023-08-11T07:09:06.873Z,101356.50
2023-08-11T07:14:11.327Z,101363.38
2023-08-11T07:19:20.821Z,101365.63
2023-08-11T07:24:24.658Z,101358.16
2023-08-11T07:29:36.289Z,101364.72
2023-08-11T07:34:43.166Z,101354.84
2023-08-11T07:40:02.596Z,101350.88
2023-08-11T07:45:07.723Z,101360.06
2023-08-11T07:50:12.850Z,101354.91
2023-08-11T07:55:16.693Z,101359.66
2023-08-11T08:00:30.811Z,101364.56
2023-08-11T08:05:40.402Z,101348.72
2023-08-11T08:10:44.631Z,101348.06
2023-08-11T08:27:40.664Z,101352.47
2023-08-11T08:32:44.867Z,101361.22
2023-08-11T08:37:48.717Z,101349.00
2023-08-11T08:42:54.999Z,101356.84
2023-08-11T08:47:59.520Z,101346.66
2023-08-11T08:53:05.382Z,101348.53
2023-08-11T08:58:18.029Z,101338.00
2023-08-11T09:03:22.029Z,101333.63
2023-08-11T09:08:26.032Z,101321.13
2023-08-11T09:13:33.425Z,101316.47
2023-08-11T09:18:38.701Z,101323.22
2023-08-11T09:23:45.431Z,101322.41
2023-08-11T09:28:52.067Z,101317.13
2023-08-11T09:33:55.832Z,101316.09
2023-08-11T09:39:09.019Z,101313.97
2023-08-11T09:44:17.944Z,101308.34
2023-08-11T09:49:21.755Z,101307.34
2023-08-11T09:54:26.481Z,101302.31
2023-08-11T09:59:31.637Z,101317.09
2023-08-11T10:04:40.191Z,101301.25
2023-08-11T10:09:46.336Z,101306.91
2023-08-11T10:14:53.403Z,101301.41
2023-08-11T10:20:08.669Z,101300.59
2023-08-11T10:25:13.244Z,101307.09
2023-08-11T10:30:19.570Z,101297.34
2023-08-11T10:35:28.881Z,101291.47
2023-08-11T10:40:38.736Z,101293.91
2023-08-11T10:45:44.925Z,101289.00
2023-08-11T10:50:49.114Z,101284.47
2023-08-11T10:56:01.352Z,101283.09
2023-08-11T11:01:07.144Z,101284.91
2023-08-11T11:06:11.282Z,101284.03
2023-08-11T11:11:15.302Z,101278.31
2023-08-11T11:16:20.648Z,101272.81
2023-08-11T11:21:28.245Z,101265.53
2023-08-11T11:26:34.464Z,101260.94
2023-08-11T11:31:41.299Z,101254.72
2023-08-11T11:36:45.422Z,101248.28
2023-08-11T11:41:49.631Z,101251.16
2023-08-11T11:46:55.090Z,101247.66
2023-08-11T11:51:59.612Z,101244.91
2023-08-11T11:57:08.277Z,101245.16
2023-08-11T12:02:15.422Z,101237.22
2023-08-11T12:07:35.149Z,101229.66
2023-08-11T12:12:39.481Z,101227.09
2023-08-11T12:17:50.298Z,101243.28
2023-08-11T12:22:54.093Z,101247.41
2023-08-11T12:27:58.144Z,101239.44
2023-08-11T12:33:03.970Z,101228.28
2023-08-11T12:38:10.874Z,101217.13
2023-08-11T12:43:15.581Z,101218.63
2023-08-11T12:48:20.920Z,101214.44
2023-08-11T12:53:25.520Z,101199.28
2023-08-11T12:58:30.080Z,101202.97
2023-08-11T13:03:35.645Z,101207.09
2023-08-11T13:08:39.980Z,101202.75
2023-08-11T13:13:52.414Z,101199.59
2023-08-11T13:18:57.555Z,101187.75
2023-08-11T13:24:01.830Z,101197.13
2023-08-11T13:29:06.401Z,101184.97
2023-08-11T13:34:11.641Z,101173.78
2023-08-11T13:39:15.769Z,101169.47
2023-08-11T13:44:21.633Z,101160.41
2023-08-11T13:49:26.941Z,101164.94
2023-08-11T13:54:31.128Z,101161.44
2023-08-11T13:59:34.997Z,101168.13
2023-08-11T14:04:40.717Z,101162.41
2023-08-11T14:09:44.694Z,101148.72
2023-08-11T14:14:48.561Z,101149.19
2023-08-11T14:19:53.671Z,101142.91
2023-08-11T14:25:02.380Z,101154.00
2023-08-11T14:30:07.366Z,101151.88
2023-08-11T14:35:12.654Z,101133.00
2023-08-11T14:40:17.113Z,101133.13
2023-08-11T14:45:21.049Z,101122.41
2023-08-11T14:50:26.171Z,101113.66
2023-08-11T14:55:30.774Z,101119.47
2023-08-11T15:00:34.789Z,101121.16
2023-08-11T15:05:40.198Z,101127.75
2023-08-11T15:10:44.799Z,101132.69
2023-08-11T15:15:49.123Z,101117.97
2023-08-11T15:20:55.749Z,101109.94
2023-08-11T15:25:59.737Z,101096.38
2023-08-11T15:31:04.937Z,101094.91
2023-08-11T15:36:12.961Z,101082.44
2023-08-11T15:41:16.744Z,101090.72
2023-08-11T15:46:20.551Z,101081.31
2023-08-11T15:51:26.274Z,101077.78
2023-08-11T15:56:30.448Z,101079.63
2023-08-11T16:01:34.373Z,101077.38
2023-08-11T16:06:39.728Z,101078.31
2023-08-11T16:11:45.721Z,101069.78
2023-08-11T16:16:49.839Z,101077.78
2023-08-11T16:21:55.130Z,101084.22
2023-08-11T16:26:58.921Z,101075.91
2023-08-11T16:32:03.016Z,101081.19
2023-08-11T16:37:09.040Z,101081.09
2023-08-11T16:42:13.161Z,101080.50
2023-08-11T16:47:17.092Z,101074.03
2023-08-11T16:52:22.893Z,101073.03
2023-08-11T16:57:26.794Z,101066.78
2023-08-11T17:02:30.652Z,101057.00
2023-08-11T17:07:36.156Z,101064.28
2023-08-11T17:12:40.022Z,101051.47
2023-08-11T17:17:43.792Z,101059.63
2023-08-11T17:22:50.173Z,101063.66
2023-08-11T17:27:54.038Z,101063.88
2023-08-11T17:32:58.730Z,101057.38
2023-08-11T17:38:05.283Z,101050.72
2023-08-11T17:43:10.461Z,101052.72
2023-08-11T17:48:15.154Z,101052.84
2023-08-11T17:53:20.827Z,101050.59
2023-08-11T17:58:24.827Z,101067.53
2023-08-11T18:03:28.812Z,101063.53
2023-08-11T18:08:34.289Z,101058.09
2023-08-11T18:13:40.606Z,101059.69
2023-08-11T18:18:45.814Z,101059.53
2023-08-11T18:23:51.233Z,101058.41
2023-08-11T18:28:55.123Z,101057.41
2023-08-11T18:34:01.170Z,101057.63
2023-08-11T18:39:07.327Z,101069.56
2023-08-11T18:44:11.492Z,101070.13
2023-08-11T18:49:15.464Z,101065.47
2023-08-11T18:54:20.743Z,101071.66
2023-08-11T18:59:24.677Z,101067.28
2023-08-11T19:04:28.530Z,101071.19
2023-08-11T19:09:33.813Z,101075.28
2023-08-11T19:14:37.673Z,101076.13
2023-08-11T19:19:41.849Z,101073.91
2023-08-11T19:24:47.204Z,101075.72
2023-08-11T19:29:51.069Z,101063.38
2023-08-11T19:34:56.623Z,101076.13
2023-08-11T19:40:01.963Z,101067.00
2023-08-11T19:45:06.947Z,101058.16
2023-08-11T19:50:11.062Z,101060.53
2023-08-11T19:55:16.519Z,101057.59
2023-08-11T20:00:21.086Z,101049.75
2023-08-11T20:05:25.258Z,101055.19
2023-08-11T20:10:30.504Z,101055.25
2023-08-11T20:15:34.612Z,101051.91
2023-08-11T20:20:38.705Z,101048.38
2023-08-11T20:25:43.928Z,101053.81
2023-08-11T20:30:47.825Z,101057.78
2023-08-11T20:35:51.531Z,101057.53
2023-08-11T20:41:00.154Z,101058.16
2023-08-11T20:46:04.609Z,101054.28
2023-08-11T20:51:13.012Z,101053.84
2023-08-11T21:01:25.008Z,101053.25
2023-08-11T21:06:31.544Z,101054.63
2023-08-11T21:11:36.864Z,101048.63
2023-08-11T21:16:41.538Z,101043.34
2023-08-11T21:21:46.288Z,101050.44
2023-08-11T21:26:51.458Z,101040.38
2023-08-11T21:31:56.401Z,101039.56
2023-08-11T21:37:01.926Z,101034.97
2023-08-11T21:42:09.448Z,101044.19
2023-08-11T21:47:13.715Z,101037.88
2023-08-11T21:52:18.273Z,101032.72
2023-08-11T21:57:23.632Z,101031.81
2023-08-11T22:02:27.590Z,101023.09
2023-08-11T22:07:31.603Z,101017.56
2023-08-11T22:12:36.888Z,101007.22
2023-08-11T22:17:41.182Z,101012.63
2023-08-11T22:22:45.030Z,101017.91
2023-08-11T22:27:50.229Z,101019.28
2023-08-11T22:32:54.095Z,101015.34
2023-08-11T22:37:57.975Z,101015.97
2023-08-11T22:43:03.301Z,101002.69
2023-08-11T22:48:08.104Z,101009.75
2023-08-11T22:53:11.865Z,101010.34
2023-08-11T22:58:17.100Z,101005.59
2023-08-11T23:03:20.905Z,100996.28
2023-08-11T23:08:24.721Z,100996.59
2023-08-11T23:13:29.952Z,100997.03
2023-08-11T23:18:33.671Z,100995.38
2023-08-11T23:23:37.239Z,100997.81
2023-08-11T23:28:42.617Z,100992.06
2023-08-11T23:33:46.436Z,100991.56
2023-08-11T23:38:50.597Z,100985.31
2023-08-11T23:43:55.898Z,100988.69
2023-08-11T23:48:59.634Z,100981.13
2023-08-11T23:54:03.303Z,100977.41
2023-08-11T23:59:08.497Z,100980.50
